Time;durP1;ratioP1;P1;durP2;ratioP2;P2;SDS_P1;SDS_P2;PMS_P1;PMS_P2;Temp;Humidity;BMP_temperature;BMP_pressure;BME280_temperature;BME280_humidity;BME280_pressure;Samples;Min_cycle;Max_cycle;Signal;HPM_P1;HPM_P2
2023/01/03 00:01:08;;;;;;;;;;;3.90;99.90;;;;;;5066473;28;19920;-74
2023/01/03 00:03:34;;;;;;;;;;;3.90;99.90;;;;;;5066111;28;19920;-74
2023/01/03 00:05:59;;;;;;;;;;;3.80;99.90;;;;;;5066592;28;20343;-73
2023/01/03 00:08:26;;;;;;;;;;;3.80;99.90;;;;;;5066204;28;19927;-74
2023/01/03 00:10:51;;;;;;;;;;;3.80;99.90;;;;;;5051246;28;19920;-74
2023/01/03 00:13:17;;;;;;;;;;;3.80;99.90;;;;;;5032474;28;20524;-74
2023/01/03 00:15:42;;;;;;;;;;;3.80;99.90;;;;;;5078887;28;20297;-74
2023/01/03 00:18:08;;;;;;;;;;;3.70;99.90;;;;;;5045665;28;19924;-74
2023/01/03 00:20:34;;;;;;;;;;;3.70;99.90;;;;;;5064001;28;20424;-74
2023/01/03 00:23:00;;;;;;;;;;;3.70;99.90;;;;;;5065309;28;19928;-74
2023/01/03 00:25:27;;;;;;;;;;;3.70;99.90;;;;;;5066342;28;19939;-74
2023/01/03 00:27:52;;;;;;;;;;;3.70;99.90;;;;;;5045777;28;19920;-74
2023/01/03 00:30:18;;;;;;;;;;;3.60;99.90;;;;;;5045110;28;19936;-74
2023/01/03 00:32:44;;;;;;;;;;;3.60;99.90;;;;;;5049085;28;20128;-74
2023/01/03 00:35:09;;;;;;;;;;;3.60;99.90;;;;;;5067301;28;19928;-74
2023/01/03 00:37:35;;;;;;;;;;;3.60;99.90;;;;;;5066412;28;20333;-75
2023/01/03 00:40:01;;;;;;;;;;;3.50;99.90;;;;;;5053633;28;20300;-74
2023/01/03 00:42:26;;;;;;;;;;;3.50;99.90;;;;;;5047960;28;19920;-74
2023/01/03 00:44:52;;;;;;;;;;;3.50;99.90;;;;;;5051786;28;19977;-74
2023/01/03 00:47:17;;;;;;;;;;;3.70;99.90;;;;;;5068314;28;20365;-74
2023/01/03 00:49:43;;;;;;;;;;;3.50;99.90;;;;;;5053181;28;20377;-74
2023/01/03 00:52:09;;;;;;;;;;;3.50;99.90;;;;;;5070032;28;20220;-74
2023/01/03 00:54:35;;;;;;;;;;;3.50;99.90;;;;;;5071249;28;20369;-74
2023/01/03 00:57:01;;;;;;;;;;;3.50;99.90;;;;;;5083288;28;19994;-74
2023/01/03 00:59:27;;;;;;;;;;;3.60;99.90;;;;;;5051956;28;19927;-74
2023/01/03 01:01:53;;;;;;;;;;;3.40;99.90;;;;;;5051568;28;19920;-74
2023/01/03 01:04:19;;;;;;;;;;;3.40;99.90;;;;;;5048543;28;20037;-74
2023/01/03 01:06:50;;;;;;;;;;;3.40;99.90;;;;;;5068241;28;20448;-74
2023/01/03 01:09:17;;;;;;;;;;;3.30;99.90;;;;;;5033893;28;19984;-74
2023/01/03 01:11:42;;;;;;;;;;;3.30;99.90;;;;;;5063986;28;20006;-74
2023/01/03 01:14:21;;;;;;;;;;;3.30;99.90;;;;;;5052116;28;20030;-74
2023/01/03 01:17:00;;;;;;;;;;;3.30;99.90;;;;;;5069445;28;19971;-73
2023/01/03 01:19:34;;;;;;;;;;;3.20;99.90;;;;;;5070790;28;19939;-74
2023/01/03 01:21:59;;;;;;;;;;;3.20;99.90;;;;;;5069195;28;20315;-74
2023/01/03 01:24:25;;;;;;;;;;;3.10;99.90;;;;;;5052515;28;19920;-74
2023/01/03 01:26:51;;;;;;;;;;;3.20;99.90;;;;;;5051325;28;19927;-74
2023/01/03 01:29:17;;;;;;;;;;;3.10;99.90;;;;;;5066069;28;20437;-74
2023/01/03 01:31:43;;;;;;;;;;;3.10;99.90;;;;;;5069712;28;19920;-74
2023/01/03 01:34:09;;;;;;;;;;;3.10;99.90;;;;;;5065512;28;19924;-74
2023/01/03 01:36:36;;;;;;;;;;;3.10;99.90;;;;;;5066758;28;20270;-74
2023/01/03 01:39:06;;;;;;;;;;;3.10;99.90;;;;;;5063755;28;20042;-74
2023/01/03 01:44:39;;;;;;;;;;;3.00;99.90;;;;;;5086385;28;19923;-74
2023/01/03 01:47:13;;;;;;;;;;;3.00;99.90;;;;;;5049606;28;19921;-74
2023/01/03 01:49:40;;;;;;;;;;;2.90;99.90;;;;;;5067135;28;19920;-74
2023/01/03 01:52:06;;;;;;;;;;;2.90;99.90;;;;;;5053043;28;19920;-74
2023/01/03 01:54:32;;;;;;;;;;;2.90;99.90;;;;;;5048854;28;19920;-74
2023/01/03 01:56:58;;;;;;;;;;;2.60;99.90;;;;;;5063358;28;19972;-74
2023/01/03 01:59:23;;;;;;;;;;;2.80;99.90;;;;;;5052599;28;20358;-74
2023/01/03 02:01:51;;;;;;;;;;;2.80;99.90;;;;;;5088589;28;19977;-74
2023/01/03 02:04:20;;;;;;;;;;;2.80;99.90;;;;;;5064146;28;19928;-74
2023/01/03 02:06:46;;;;;;;;;;;2.80;99.90;;;;;;5065442;28;19974;-74
2023/01/03 02:09:11;;;;;;;;;;;2.80;99.90;;;;;;5050946;28;19964;-74
2023/01/03 02:13:04;;;;;;;;;;;2.80;99.90;;;;;;5066383;28;19992;-74
2023/01/03 02:14:53;;;;;;;;;;;2.70;99.90;;;;;;5064431;28;20317;-74
2023/01/03 02:17:22;;;;;;;;;;;2.70;99.90;;;;;;5067869;28;19955;-74
2023/01/03 02:20:06;;;;;;;;;;;2.70;99.90;;;;;;5047597;28;19926;-74
2023/01/03 02:22:47;;;;;;;;;;;2.70;99.90;;;;;;5049546;28;19929;-74
2023/01/03 02:25:15;;;;;;;;;;;2.70;99.90;;;;;;5045898;28;20405;-74
2023/01/03 02:28:00;;;;;;;;;;;2.60;99.90;;;;;;5050032;28;19928;-74
2023/01/03 02:30:34;;;;;;;;;;;2.60;99.90;;;;;;5066066;28;19920;-74
2023/01/03 02:33:19;;;;;;;;;;;2.60;99.90;;;;;;5065134;28;19928;-74
2023/01/03 02:35:53;;;;;;;;;;;2.60;99.90;;;;;;5085927;28;19924;-74
2023/01/03 02:38:49;;;;;;;;;;;2.70;99.90;;;;;;5066040;28;19963;-74
2023/01/03 02:41:30;;;;;;;;;;;2.60;99.90;;;;;;5072080;28;20759;-74
2023/01/03 02:44:10;;;;;;;;;;;2.60;99.90;;;;;;5050113;28;19955;-74
2023/01/03 02:46:43;;;;;;;;;;;2.60;99.90;;;;;;5068206;28;19932;-74
2023/01/03 02:49:12;;;;;;;;;;;2.50;99.90;;;;;;5073472;28;20258;-74
2023/01/03 02:51:40;;;;;;;;;;;2.60;99.90;;;;;;5073860;28;19955;-74
2023/01/03 02:54:08;;;;;;;;;;;2.50;99.90;;;;;;5067996;28;19973;-74
2023/01/03 02:56:36;;;;;;;;;;;2.50;99.90;;;;;;5069371;28;19977;-74
2023/01/03 02:59:04;;;;;;;;;;;2.50;99.90;;;;;;5065958;28;19924;-74
2023/01/03 03:01:30;;;;;;;;;;;2.50;99.90;;;;;;5065045;28;19973;-73
2023/01/03 03:03:56;;;;;;;;;;;2.60;99.90;;;;;;5032964;28;19946;-74
2023/01/03 03:06:28;;;;;;;;;;;2.60;99.90;;;;;;5044317;28;19928;-74
2023/01/03 03:08:54;;;;;;;;;;;2.60;99.90;;;;;;5063365;28;19923;-74
2023/01/03 03:14:32;;;;;;;;;;;2.60;99.90;;;;;;5065760;28;19923;-73
2023/01/03 03:17:00;;;;;;;;;;;2.60;99.90;;;;;;5047194;28;20523;-74
2023/01/03 03:25:08;;;;;;;;;;;2.50;99.90;;;;;;5065362;28;20007;-74
2023/01/03 03:30:24;;;;;;;;;;;2.50;99.90;;;;;;5085049;28;20014;-74
2023/01/03 03:32:51;;;;;;;;;;;2.50;99.90;;;;;;5065668;28;20278;-74
2023/01/03 03:35:19;;;;;;;;;;;2.40;99.90;;;;;;5064705;28;19920;-74
2023/01/03 03:37:45;;;;;;;;;;;2.40;99.90;;;;;;5066899;28;19963;-74
2023/01/03 03:45:50;;;;;;;;;;;2.40;99.90;;;;;;5062553;28;19931;-74
2023/01/03 03:48:23;;;;;;;;;;;2.40;99.90;;;;;;5050069;28;19920;-74
2023/01/03 03:51:09;;;;;;;;;;;2.40;99.90;;;;;;5063848;28;19963;-74
2023/01/03 03:53:35;;;;;;;;;;;2.40;99.90;;;;;;5066699;28;19920;-74
2023/01/03 03:56:04;;;;;;;;;;;2.50;99.90;;;;;;5062187;28;19939;-74
2023/01/03 03:58:33;;;;;;;;;;;2.50;99.90;;;;;;5064046;28;19953;-74
2023/01/03 04:00:59;;;;;;;;;;;2.50;99.90;;;;;;5044420;28;19951;-73
2023/01/03 04:03:25;;;;;;;;;;;2.40;99.90;;;;;;5061667;28;19924;-74
2023/01/03 04:05:53;;;;;;;;;;;2.40;99.90;;;;;;5062471;28;20335;-74
2023/01/03 04:08:19;;;;;;;;;;;2.40;99.90;;;;;;5048156;28;19924;-73
2023/01/03 04:10:44;;;;;;;;;;;2.30;99.90;;;;;;5051228;28;19924;-74
2023/01/03 04:13:10;;;;;;;;;;;2.30;99.90;;;;;;5051925;28;19920;-73
2023/01/03 04:15:35;;;;;;;;;;;2.30;99.90;;;;;;5050209;28;19997;-74
2023/01/03 04:18:01;;;;;;;;;;;2.30;99.90;;;;;;5052197;28;19926;-74
2023/01/03 04:20:27;;;;;;;;;;;2.20;99.90;;;;;;5070299;28;19935;-74
2023/01/03 04:22:52;;;;;;;;;;;2.20;99.90;;;;;;5053566;28;19944;-74
2023/01/03 04:25:18;;;;;;;;;;;2.20;99.90;;;;;;5038151;28;20099;-74
2023/01/03 04:27:44;;;;;;;;;;;2.20;99.90;;;;;;5071710;28;20369;-73
2023/01/03 04:30:10;;;;;;;;;;;2.10;99.90;;;;;;5071435;28;20263;-74
2023/01/03 04:32:38;;;;;;;;;;;2.10;99.90;;;;;;5052729;28;20113;-73
2023/01/03 04:35:04;;;;;;;;;;;2.10;99.90;;;;;;5069249;28;20002;-73
2023/01/03 04:37:30;;;;;;;;;;;2.10;99.90;;;;;;5053624;28;19928;-73
2023/01/03 04:39:55;;;;;;;;;;;2.10;99.90;;;;;;5067111;28;19927;-74
2023/01/03 04:45:05;;;;;;;;;;;2.00;99.90;;;;;;5071558;28;19932;-73
2023/01/03 04:47:31;;;;;;;;;;;1.90;99.90;;;;;;5068386;28;20373;-74
2023/01/03 04:49:57;;;;;;;;;;;1.90;99.90;;;;;;5069309;28;19982;-74
2023/01/03 04:52:22;;;;;;;;;;;1.90;99.90;;;;;;5065057;28;19920;-73
2023/01/03 04:54:48;;;;;;;;;;;1.80;99.90;;;;;;5052918;28;19969;-73
2023/01/03 04:57:14;;;;;;;;;;;1.90;99.90;;;;;;5051027;28;19932;-74
2023/01/03 04:59:39;;;;;;;;;;;1.80;99.90;;;;;;5070715;28;20449;-74
2023/01/03 05:02:05;;;;;;;;;;;1.80;99.90;;;;;;5068595;28;19924;-74
2023/01/03 05:04:31;;;;;;;;;;;1.80;99.90;;;;;;5051740;28;20554;-73
2023/01/03 05:06:56;;;;;;;;;;;1.80;99.90;;;;;;5064232;28;19974;-73
2023/01/03 05:09:22;;;;;;;;;;;1.90;99.90;;;;;;5068218;28;19924;-73
2023/01/03 05:11:48;;;;;;;;;;;1.80;99.90;;;;;;5066036;28;19927;-73
2023/01/03 05:14:13;;;;;;;;;;;1.80;99.90;;;;;;5036967;28;19963;-74
2023/01/03 05:16:39;;;;;;;;;;;1.80;99.90;;;;;;5051780;28;19939;-74
2023/01/03 05:19:04;;;;;;;;;;;1.80;99.90;;;;;;5050664;28;20427;-73
2023/01/03 05:26:59;;;;;;;;;;;1.80;99.90;;;;;;5067138;28;19928;-73
2023/01/03 05:29:26;;;;;;;;;;;1.80;99.90;;;;;;5065203;28;20007;-73
2023/01/03 05:31:52;;;;;;;;;;;1.90;99.90;;;;;;5051613;28;19927;-74
2023/01/03 05:34:18;;;;;;;;;;;1.90;99.90;;;;;;5066874;28;19920;-74
2023/01/03 05:36:43;;;;;;;;;;;1.90;99.90;;;;;;5066792;28;19976;-73
2023/01/03 05:39:09;;;;;;;;;;;1.90;99.90;;;;;;5062012;28;20289;-73
2023/01/03 05:44:19;;;;;;;;;;;1.90;99.90;;;;;;5067399;28;20030;-73
2023/01/03 05:46:45;;;;;;;;;;;1.90;99.90;;;;;;5049123;28;19990;-74
2023/01/03 05:49:10;;;;;;;;;;;1.90;99.90;;;;;;5065234;28;20348;-74
2023/01/03 05:51:36;;;;;;;;;;;1.80;99.90;;;;;;5048174;28;19920;-74
2023/01/03 05:54:02;;;;;;;;;;;1.70;99.90;;;;;;5065865;28;19973;-74
2023/01/03 05:56:28;;;;;;;;;;;1.70;99.90;;;;;;5067008;28;19939;-73
2023/01/03 05:58:54;;;;;;;;;;;1.70;99.90;;;;;;5069136;28;19928;-74
2023/01/03 06:01:20;;;;;;;;;;;1.70;99.90;;;;;;5065554;28;19936;-73
2023/01/03 06:03:46;;;;;;;;;;;1.70;99.90;;;;;;5063637;28;19920;-73
2023/01/03 06:06:13;;;;;;;;;;;1.60;99.90;;;;;;5068306;28;19920;-74
2023/01/03 06:08:39;;;;;;;;;;;1.60;99.90;;;;;;5067532;28;19924;-74
2023/01/03 06:11:09;;;;;;;;;;;1.60;99.90;;;;;;5066717;28;20393;-73
2023/01/03 06:13:34;;;;;;;;;;;1.60;99.90;;;;;;5066735;28;19924;-73
2023/01/03 06:18:45;;;;;;;;;;;1.60;99.90;;;;;;5053738;28;20327;-73
2023/01/03 06:21:13;;;;;;;;;;;1.60;99.90;;;;;;5065606;28;19928;-73
2023/01/03 06:23:39;;;;;;;;;;;1.70;99.90;;;;;;5050280;28;19926;-73
2023/01/03 06:26:04;;;;;;;;;;;1.50;99.90;;;;;;5051826;28;19920;-74
2023/01/03 06:28:30;;;;;;;;;;;1.40;99.90;;;;;;5050764;28;20399;-73
2023/01/03 06:30:55;;;;;;;;;;;1.40;99.90;;;;;;5066053;28;19920;-74
2023/01/03 06:33:21;;;;;;;;;;;1.30;99.90;;;;;;5065744;28;19920;-73
2023/01/03 06:35:47;;;;;;;;;;;1.20;99.90;;;;;;5051756;28;19924;-73
2023/01/03 06:38:12;;;;;;;;;;;1.50;99.90;;;;;;5048917;28;19920;-73
2023/01/03 06:40:38;;;;;;;;;;;1.10;99.90;;;;;;5047270;28;19928;-73
2023/01/03 06:43:03;;;;;;;;;;;1.10;99.90;;;;;;5086781;28;20300;-73
2023/01/03 06:53:45;;;;;;;;;;;1.10;99.90;;;;;;5063861;28;19920;-74
2023/01/03 06:56:11;;;;;;;;;;;1.10;99.90;;;;;;5046903;28;20527;-73
2023/01/03 06:58:44;;;;;;;;;;;0.90;99.90;;;;;;5065030;28;19920;-73
2023/01/03 07:01:11;;;;;;;;;;;0.80;99.90;;;;;;5033149;28;19931;-73
2023/01/03 07:03:37;;;;;;;;;;;0.80;99.90;;;;;;5063009;28;20297;-73
2023/01/03 07:06:03;;;;;;;;;;;0.80;99.90;;;;;;5064551;28;19928;-73
2023/01/03 07:08:28;;;;;;;;;;;0.80;99.90;;;;;;5048174;28;19928;-73
2023/01/03 07:10:54;;;;;;;;;;;0.90;99.90;;;;;;5067189;28;19920;-73
2023/01/03 07:16:04;;;;;;;;;;;0.80;99.90;;;;;;5064087;28;20352;-73
2023/01/03 07:18:33;;;;;;;;;;;0.70;99.90;;;;;;5069098;28;19920;-74
2023/01/03 07:20:58;;;;;;;;;;;0.60;99.90;;;;;;5093144;28;19920;-73
2023/01/03 07:23:24;;;;;;;;;;;0.70;99.90;;;;;;5089180;28;19931;-73
2023/01/03 07:25:52;;;;;;;;;;;0.70;99.90;;;;;;5089840;28;20010;-73
2023/01/03 07:28:18;;;;;;;;;;;0.70;99.90;;;;;;5074691;28;19959;-74
2023/01/03 07:30:45;;;;;;;;;;;0.70;99.90;;;;;;5076169;28;19927;-73
2023/01/03 07:33:12;;;;;;;;;;;0.70;99.90;;;;;;5051792;28;19924;-73
2023/01/03 07:35:37;;;;;;;;;;;0.80;99.90;;;;;;5066106;28;19955;-73
2023/01/03 07:38:04;;;;;;;;;;;0.90;99.90;;;;;;5049638;28;19974;-73
2023/01/03 07:40:30;;;;;;;;;;;0.90;99.90;;;;;;5064219;28;19998;-74
2023/01/03 07:45:41;;;;;;;;;;;1.00;99.90;;;;;;5065425;28;20009;-73
2023/01/03 07:48:07;;;;;;;;;;;1.10;99.90;;;;;;5050024;28;19927;-74
2023/01/03 07:50:32;;;;;;;;;;;1.10;99.90;;;;;;5053544;28;19920;-73
2023/01/03 07:52:58;;;;;;;;;;;1.70;99.90;;;;;;5048198;28;19977;-73
2023/01/03 07:55:24;;;;;;;;;;;1.30;99.90;;;;;;5064080;28;19924;-74
2023/01/03 07:57:49;;;;;;;;;;;1.40;99.90;;;;;;5067577;28;20436;-74
2023/01/03 08:00:15;;;;;;;;;;;1.60;99.90;;;;;;5049032;28;19920;-74
2023/01/03 08:02:40;;;;;;;;;;;1.60;99.90;;;;;;5048338;28;19920;-73
2023/01/03 08:05:06;;;;;;;;;;;1.70;99.90;;;;;;5041163;28;19932;-73
2023/01/03 08:07:32;;;;;;;;;;;1.80;99.90;;;;;;5038574;28;20463;-73
2023/01/03 08:15:26;;;;;;;;;;;2.00;99.90;;;;;;5054351;28;19920;-73
2023/01/03 08:17:51;;;;;;;;;;;2.10;99.90;;;;;;5034714;28;19928;-73
2023/01/03 08:20:17;;;;;;;;;;;2.10;99.90;;;;;;5052388;28;20010;-73
2023/01/03 08:22:42;;;;;;;;;;;2.30;99.90;;;;;;5023116;28;19923;-73
2023/01/03 08:25:08;;;;;;;;;;;2.30;99.90;;;;;;5053272;28;20640;-74
2023/01/03 08:27:34;;;;;;;;;;;2.40;99.90;;;;;;5039939;28;19953;-74
2023/01/03 08:29:59;;;;;;;;;;;2.40;99.90;;;;;;5038428;28;20369;-73
2023/01/03 08:32:25;;;;;;;;;;;2.50;99.90;;;;;;5038263;28;20022;-73
2023/01/03 08:34:51;;;;;;;;;;;2.60;99.90;;;;;;5034192;28;19936;-73
2023/01/03 08:37:16;;;;;;;;;;;2.70;99.90;;;;;;5037348;28;19937;-73
2023/01/03 08:39:45;;;;;;;;;;;2.70;99.90;;;;;;5034485;28;19928;-73
2023/01/03 08:42:13;;;;;;;;;;;2.80;99.90;;;;;;5054156;28;19928;-73
2023/01/03 08:44:39;;;;;;;;;;;2.80;99.90;;;;;;5053688;28;19932;-73
2023/01/03 08:47:05;;;;;;;;;;;2.90;99.90;;;;;;5040168;28;19936;-73
2023/01/03 08:49:30;;;;;;;;;;;3.00;99.90;;;;;;5037463;28;20030;-73
2023/01/03 08:51:56;;;;;;;;;;;3.10;99.90;;;;;;5030568;28;19924;-73
2023/01/03 08:54:22;;;;;;;;;;;3.10;99.90;;;;;;5037095;28;19927;-73
2023/01/03 08:56:50;;;;;;;;;;;3.10;99.90;;;;;;5053700;28;20022;-73
2023/01/03 08:59:16;;;;;;;;;;;3.30;99.90;;;;;;5065658;28;19920;-74
2023/01/03 09:01:41;;;;;;;;;;;3.30;99.90;;;;;;5048430;28;20274;-73
2023/01/03 09:04:07;;;;;;;;;;;3.30;99.90;;;;;;5062246;28;20301;-73
2023/01/03 09:06:36;;;;;;;;;;;3.40;99.90;;;;;;5084457;28;19920;-74
2023/01/03 09:09:05;;;;;;;;;;;3.40;99.90;;;;;;5050617;28;19924;-73
2023/01/03 09:11:30;;;;;;;;;;;3.40;99.90;;;;;;5050087;28;19929;-74
2023/01/03 09:13:56;;;;;;;;;;;3.50;99.90;;;;;;5063848;28;19981;-73
2023/01/03 09:16:21;;;;;;;;;;;3.50;99.90;;;;;;5049274;28;20011;-74
2023/01/03 09:18:47;;;;;;;;;;;3.60;99.90;;;;;;5070328;28;19920;-73
2023/01/03 09:21:13;;;;;;;;;;;3.60;99.90;;;;;;5053695;28;20389;-74
2023/01/03 09:23:38;;;;;;;;;;;3.70;99.90;;;;;;5047501;28;19934;-73
2023/01/03 09:26:05;;;;;;;;;;;3.70;99.90;;;;;;5035839;28;20337;-74
2023/01/03 09:28:30;;;;;;;;;;;3.80;99.90;;;;;;5051633;28;20293;-74
2023/01/03 09:30:56;;;;;;;;;;;3.80;99.90;;;;;;5053634;28;19926;-74
2023/01/03 09:33:22;;;;;;;;;;;3.90;99.90;;;;;;5045612;28;19989;-73
2023/01/03 09:35:47;;;;;;;;;;;3.90;99.90;;;;;;5063718;28;19952;-74
2023/01/03 09:38:13;;;;;;;;;;;3.90;99.90;;;;;;5052702;28;20012;-73
2023/01/03 09:40:40;;;;;;;;;;;3.90;99.90;;;;;;5062009;28;19924;-74
2023/01/03 09:43:11;;;;;;;;;;;3.80;99.90;;;;;;5063791;28;19920;-74
2023/01/03 09:45:42;;;;;;;;;;;3.80;99.90;;;;;;5043619;28;20120;-73
2023/01/03 09:48:11;;;;;;;;;;;3.80;99.90;;;;;;5064730;28;20280;-74
2023/01/03 09:50:37;;;;;;;;;;;3.80;99.90;;;;;;5062379;28;19924;-73
2023/01/03 10:04:56;;;;;;;;;;;4.00;99.90;;;;;;5066072;28;19921;-73
2023/01/03 10:07:51;;;;;;;;;;;4.00;99.90;;;;;;5087260;28;19963;-74
2023/01/03 10:10:35;;;;;;;;;;;4.00;99.90;;;;;;5035549;28;19920;-74
2023/01/03 10:13:36;;;;;;;;;;;4.00;99.90;;;;;;5068437;28;19924;-74
2023/01/03 10:16:21;;;;;;;;;;;4.00;99.90;;;;;;5013667;28;19924;-74
2023/01/03 10:18:49;;;;;;;;;;;4.00;99.90;;;;;;5047848;28;19921;-74
2023/01/03 10:21:18;;;;;;;;;;;3.30;99.90;;;;;;5065577;28;20666;-74
2023/01/03 10:23:45;;;;;;;;;;;4.10;99.90;;;;;;5050246;28;19976;-74
2023/01/03 10:26:16;;;;;;;;;;;4.10;99.90;;;;;;5066133;28;19920;-74
2023/01/03 10:28:44;;;;;;;;;;;4.20;99.90;;;;;;5048278;28;19920;-74
2023/01/03 10:31:15;;;;;;;;;;;4.30;99.90;;;;;;5043576;28;19921;-74
2023/01/03 10:33:44;;;;;;;;;;;4.30;99.90;;;;;;5065445;28;19943;-74
2023/01/03 10:36:10;;;;;;;;;;;4.40;99.90;;;;;;5084148;28;19924;-74
2023/01/03 10:38:39;;;;;;;;;;;4.50;99.90;;;;;;5051094;28;19943;-74
2023/01/03 10:41:14;;;;;;;;;;;4.60;99.90;;;;;;5052815;28;19991;-73
2023/01/03 10:43:42;;;;;;;;;;;4.50;99.90;;;;;;5066543;28;19927;-74
2023/01/03 10:46:15;;;;;;;;;;;4.50;99.90;;;;;;5059585;28;19924;-74
2023/01/03 10:48:42;;;;;;;;;;;4.50;99.90;;;;;;5042450;28;19921;-74
2023/01/03 10:51:20;;;;;;;;;;;4.50;99.90;;;;;;5070355;28;20430;-74
2023/01/03 10:53:46;;;;;;;;;;;4.60;99.90;;;;;;5072508;28;19920;-74
2023/01/03 10:56:13;;;;;;;;;;;4.60;99.90;;;;;;5043785;28;19931;-74
2023/01/03 10:58:39;;;;;;;;;;;4.70;99.90;;;;;;5063009;28;19927;-74
2023/01/03 11:01:10;;;;;;;;;;;4.70;99.90;;;;;;5063041;28;19920;-74
2023/01/03 11:03:43;;;;;;;;;;;4.80;99.90;;;;;;5064771;28;20050;-74
2023/01/03 11:06:12;;;;;;;;;;;4.80;99.90;;;;;;5047025;28;20397;-74
2023/01/03 11:08:43;;;;;;;;;;;4.90;99.90;;;;;;5058080;28;19925;-74
2023/01/03 11:11:29;;;;;;;;;;;5.00;99.90;;;;;;5044440;28;19927;-74
2023/01/03 11:14:10;;;;;;;;;;;5.00;99.90;;;;;;5047599;28;19924;-74
2023/01/03 11:16:35;;;;;;;;;;;5.00;99.90;;;;;;5051142;28;19924;-74
2023/01/03 11:19:03;;;;;;;;;;;5.00;99.90;;;;;;5046475;28;19920;-74
2023/01/03 11:21:33;;;;;;;;;;;5.00;99.90;;;;;;5066454;28;19926;-74
2023/01/03 11:24:19;;;;;;;;;;;5.10;99.90;;;;;;5037278;28;19927;-74
2023/01/03 11:27:04;;;;;;;;;;;5.10;99.90;;;;;;5083514;28;20053;-75
2023/01/03 11:29:48;;;;;;;;;;;5.10;99.90;;;;;;5087266;28;19972;-74
2023/01/03 11:32:20;;;;;;;;;;;5.20;99.90;;;;;;5068400;28;19927;-74
2023/01/03 11:34:46;;;;;;;;;;;5.20;99.90;;;;;;5064317;28;19924;-74
2023/01/03 11:37:33;;;;;;;;;;;5.20;99.90;;;;;;5062016;28;20440;-74
2023/01/03 11:39:59;;;;;;;;;;;5.30;99.90;;;;;;5052310;28;19920;-74
2023/01/03 11:42:24;;;;;;;;;;;5.30;99.90;;;;;;5067689;28;19943;-74
2023/01/03 11:45:09;;;;;;;;;;;5.30;99.90;;;;;;5047299;28;19928;-74
2023/01/03 11:47:34;;;;;;;;;;;5.40;99.90;;;;;;5066074;28;21243;-74
2023/01/03 11:50:19;;;;;;;;;;;5.40;99.90;;;;;;5045264;28;20025;-74
2023/01/03 11:52:54;;;;;;;;;;;5.40;99.90;;;;;;5061182;28;19920;-74
2023/01/03 11:55:38;;;;;;;;;;;5.50;99.90;;;;;;5072619;28;19919;-74
2023/01/03 11:58:10;;;;;;;;;;;5.60;99.90;;;;;;5088520;28;19953;-74
2023/01/03 12:00:45;;;;;;;;;;;5.60;99.90;;;;;;5085460;28;20100;-74
2023/01/03 12:03:11;;;;;;;;;;;5.70;99.90;;;;;;5089650;28;19924;-74
2023/01/03 12:05:36;;;;;;;;;;;5.70;99.90;;;;;;5071243;28;19927;-74
2023/01/03 12:08:12;;;;;;;;;;;5.70;99.90;;;;;;5052191;28;20307;-74
2023/01/03 12:10:50;;;;;;;;;;;5.70;99.90;;;;;;5044323;28;20444;-74
2023/01/03 12:13:30;;;;;;;;;;;5.80;99.90;;;;;;5062236;28;19931;-75
2023/01/03 12:16:10;;;;;;;;;;;5.80;99.90;;;;;;5061605;28;20393;-75
2023/01/03 12:18:36;;;;;;;;;;;5.80;99.90;;;;;;5001385;28;19928;-74
2023/01/03 12:21:06;;;;;;;;;;;5.80;99.90;;;;;;5064773;28;19920;-74
2023/01/03 12:23:32;;;;;;;;;;;5.90;99.90;;;;;;5062205;28;19925;-74
2023/01/03 12:26:00;;;;;;;;;;;5.80;99.90;;;;;;5045693;28;19928;-74
2023/01/03 12:28:38;;;;;;;;;;;5.90;99.90;;;;;;5061746;28;19920;-74
2023/01/03 12:31:09;;;;;;;;;;;5.90;99.90;;;;;;5060408;28;19931;-74
2023/01/03 12:34:07;;;;;;;;;;;5.90;99.90;;;;;;5061421;28;20031;-74
2023/01/03 12:36:51;;;;;;;;;;;5.90;99.90;;;;;;5028591;28;19924;-74
2023/01/03 12:39:29;;;;;;;;;;;6.00;99.90;;;;;;5069776;28;19924;-74
2023/01/03 12:41:55;;;;;;;;;;;6.00;99.90;;;;;;5065721;28;19921;-74
2023/01/03 12:44:24;;;;;;;;;;;6.00;99.90;;;;;;5060118;28;19932;-74
2023/01/03 12:46:55;;;;;;;;;;;6.00;99.90;;;;;;5069382;28;19931;-74
2023/01/03 12:49:50;;;;;;;;;;;6.00;99.90;;;;;;5066906;28;19923;-74
2023/01/03 12:52:21;;;;;;;;;;;6.00;99.90;;;;;;5049567;28;19964;-74
2023/01/03 12:55:13;;;;;;;;;;;6.00;99.90;;;;;;5067242;28;19927;-74
2023/01/03 12:58:14;;;;;;;;;;;6.00;99.90;;;;;;5014599;28;19932;-75
2023/01/03 13:00:42;;;;;;;;;;;6.00;99.90;;;;;;4963645;28;19933;-75
2023/01/03 13:03:11;;;;;;;;;;;6.80;99.90;;;;;;5043266;28;19935;-74
2023/01/03 13:05:49;;;;;;;;;;;6.00;99.90;;;;;;5041994;28;20293;-74
2023/01/03 13:08:38;;;;;;;;;;;6.00;99.90;;;;;;5074165;28;19924;-75
2023/01/03 13:11:07;;;;;;;;;;;6.10;99.90;;;;;;5046777;28;19932;-75
2023/01/03 13:13:33;;;;;;;;;;;6.10;99.90;;;;;;5038105;28;19920;-74
2023/01/03 13:15:59;;;;;;;;;;;6.10;99.90;;;;;;5057929;28;19924;-74
2023/01/03 13:18:29;;;;;;;;;;;6.10;99.90;;;;;;5040103;28;19927;-75
2023/01/03 13:20:55;;;;;;;;;;;6.10;99.90;;;;;;5038868;28;20484;-74
2023/01/03 13:23:27;;;;;;;;;;;6.10;99.90;;;;;;5054818;28;19924;-74
2023/01/03 13:26:16;;;;;;;;;;;6.10;99.90;;;;;;5059812;28;19920;-74
2023/01/03 13:28:42;;;;;;;;;;;6.20;99.90;;;;;;5021716;28;20007;-75
2023/01/03 13:31:13;;;;;;;;;;;6.20;99.90;;;;;;5040986;28;19927;-75
2023/01/03 13:33:52;;;;;;;;;;;6.20;99.90;;;;;;5053497;28;19974;-75
2023/01/03 13:36:18;;;;;;;;;;;6.20;99.90;;;;;;5043373;28;20025;-75
2023/01/03 13:38:44;;;;;;;;;;;6.20;99.90;;;;;;5038264;28;20332;-75
2023/01/03 13:41:33;;;;;;;;;;;6.20;99.90;;;;;;5051484;28;19928;-74
2023/01/03 13:44:14;;;;;;;;;;;5.50;99.90;;;;;;5054420;28;20584;-74
2023/01/03 13:46:41;;;;;;;;;;;6.30;99.90;;;;;;5051409;28;19938;-75
2023/01/03 13:49:07;;;;;;;;;;;5.90;99.90;;;;;;5049941;28;19932;-75
2023/01/03 13:51:53;;;;;;;;;;;6.30;99.90;;;;;;5020800;28;19935;-74
2023/01/03 13:54:18;;;;;;;;;;;6.30;99.90;;;;;;5053618;28;19982;-75
2023/01/03 13:56:44;;;;;;;;;;;6.40;99.90;;;;;;5034952;28;19932;-74
2023/01/03 13:59:12;;;;;;;;;;;6.40;99.90;;;;;;5053451;28;19955;-74
2023/01/03 14:01:53;;;;;;;;;;;6.40;99.90;;;;;;5036601;28;19950;-74
2023/01/03 14:04:41;;;;;;;;;;;6.40;99.90;;;;;;5070260;28;20006;-74
2023/01/03 14:07:06;;;;;;;;;;;6.40;99.90;;;;;;5038488;28;20024;-74
2023/01/03 14:09:38;;;;;;;;;;;6.40;99.90;;;;;;5052687;28;19980;-75
2023/01/03 14:12:07;;;;;;;;;;;6.40;99.90;;;;;;5038782;28;19924;-74
2023/01/03 14:14:35;;;;;;;;;;;6.40;99.90;;;;;;5048084;28;19924;-75
2023/01/03 14:17:01;;;;;;;;;;;6.40;99.90;;;;;;5044548;28;19932;-74
2023/01/03 14:19:36;;;;;;;;;;;6.40;99.90;;;;;;5064214;28;20517;-75
2023/01/03 14:22:04;;;;;;;;;;;6.50;99.90;;;;;;5048792;28;19946;-75
2023/01/03 14:24:35;;;;;;;;;;;6.50;99.90;;;;;;5063350;28;19928;-75
2023/01/03 14:27:06;;;;;;;;;;;6.50;99.90;;;;;;5056769;28;20019;-75
2023/01/03 14:29:33;;;;;;;;;;;6.50;99.90;;;;;;5064176;28;19924;-75
2023/01/03 14:31:59;;;;;;;;;;;6.50;99.90;;;;;;5036416;28;20002;-75
2023/01/03 14:34:35;;;;;;;;;;;6.50;99.90;;;;;;5060677;28;20004;-75
2023/01/03 14:37:06;;;;;;;;;;;6.50;99.90;;;;;;5032990;28;19934;-74
2023/01/03 14:39:32;;;;;;;;;;;6.60;99.90;;;;;;5056306;28;19928;-75
2023/01/03 14:42:01;;;;;;;;;;;6.60;99.90;;;;;;5017827;28;19928;-75
2023/01/03 14:44:28;;;;;;;;;;;6.60;99.90;;;;;;5036553;28;19927;-75
2023/01/03 14:46:55;;;;;;;;;;;6.60;99.90;;;;;;5035044;28;19932;-74
2023/01/03 14:49:23;;;;;;;;;;;6.60;99.90;;;;;;5033819;28;19964;-75
2023/01/03 14:51:49;;;;;;;;;;;6.70;99.90;;;;;;5033787;28;19928;-75
2023/01/03 14:54:16;;;;;;;;;;;6.70;99.90;;;;;;5035436;28;19920;-74
2023/01/03 14:56:45;;;;;;;;;;;6.70;99.90;;;;;;5050329;28;19963;-74
2023/01/03 14:59:13;;;;;;;;;;;6.70;99.90;;;;;;5034714;28;20085;-75
2023/01/03 15:01:43;;;;;;;;;;;6.70;99.90;;;;;;5051548;28;20022;-74
2023/01/03 15:04:12;;;;;;;;;;;6.70;99.90;;;;;;5051221;28;20181;-75
2023/01/03 15:06:54;;;;;;;;;;;6.80;99.90;;;;;;5033498;28;20408;-74
2023/01/03 15:09:21;;;;;;;;;;;6.70;99.90;;;;;;5036853;28;19951;-74
2023/01/03 15:11:58;;;;;;;;;;;6.80;99.90;;;;;;5052177;28;19972;-75
2023/01/03 15:14:30;;;;;;;;;;;6.70;99.90;;;;;;5052809;28;19947;-74
2023/01/03 15:17:04;;;;;;;;;;;6.80;99.90;;;;;;5038808;28;19924;-74
2023/01/03 15:19:31;;;;;;;;;;;6.70;99.90;;;;;;5052949;28;19957;-74
2023/01/03 15:22:16;;;;;;;;;;;6.80;99.90;;;;;;5038149;28;19928;-74
2023/01/03 15:24:46;;;;;;;;;;;6.70;99.90;;;;;;5055395;28;19924;-74
2023/01/03 15:27:38;;;;;;;;;;;6.80;99.90;;;;;;5055161;28;20376;-75
2023/01/03 15:30:13;;;;;;;;;;;6.80;99.90;;;;;;5057233;28;19924;-74
2023/01/03 15:32:48;;;;;;;;;;;6.80;99.90;;;;;;5037744;28;19965;-75
2023/01/03 15:35:18;;;;;;;;;;;6.80;99.90;;;;;;5048809;28;20293;-75
2023/01/03 15:37:43;;;;;;;;;;;6.70;99.90;;;;;;5041573;28;19972;-75
2023/01/03 15:40:10;;;;;;;;;;;6.70;99.90;;;;;;5044366;28;19963;-74
2023/01/03 15:45:20;;;;;;;;;;;6.60;99.90;;;;;;5042889;28;19933;-75
2023/01/03 15:47:50;;;;;;;;;;;6.60;99.90;;;;;;5037814;28;20216;-75
2023/01/03 15:50:20;;;;;;;;;;;6.60;99.90;;;;;;5034725;28;19928;-75
2023/01/03 15:52:46;;;;;;;;;;;6.70;99.90;;;;;;5039517;28;20004;-74